Terminal Aerodrome Forecast
Issued by NWS St Louis, MO

Home | Current Version | Previous Version | Text Only | Print | Product List | Glossary On
Versions: 1 2 3 4 5 6 7 8 9 10 11 12 13 14 15 16 17 18 19 20 21 22 23 24
595
FTUS43 KLSX 110538
TAFSTL
TAF
KSTL 110538Z 1106/1212 16013G20KT P6SM OVC050
     FM111800 18014G21KT P6SM -RA OVC030
     FM112100 19014G21KT 5SM -RA OVC020
     FM120000 20009KT P6SM OVC010
     FM120600 30010KT P6SM BKN015=

USA.gov is the U.S. government's official web portal to all federal, state and local government web resources and services.